Chatham, Virginia
Current Conditions -  °F | °C
As of 4:53 PM on Saturday 25 Oct 2014 (Local Time) from KDAN Reporting Station
Clear Clear  
Wind Chill: 71°   Ceiling: Unl
Heat Index: 71°   Visibility: 10mi
Dew Point: 41°   Wind: 10mph
Humidity: 34%   Direction: 230°SW
Pressure: 29.9"   Gusts: NA
Location:  36.83°N, 79.4°W
Report Text: KDAN 252053Z AUTO 23009KT 10SM CLR 22/05 A2990 RMK AO2 SLP118 T02170050 56020
Loading
Personal Weather Stations






























Interactive Weather Map
Tropical Storm Tracking
New forecast layout! Learn more

10-Day Weather Forecast

Advertisements
Track Severe Weather on mobile